Flight Track Log - Related Links

Times and Time Zones

All times are in EDT time to prevent confusion due to time zone crossing. See the N711MD flight status page for this flight to view local times or setup timezone preferences in your user account.

Time Position Orientation Groundspeed Altitude Reporting Facility
EDT Latitude Longitude Course Direction KTS MPH feet Rate Location/Type
Sun 09:35:25 PM 43.1222 -77.6847 353° North 125 144 1,200  Level Cleveland Center
Sun 09:37:12 PM 43.1639 -77.6914 342° North 227 261 4,500 2,010 Climbing Cleveland Center
Sun 09:38:36 PM 43.1881 -77.5733 74° East 214 246 7,600 2,167 Climbing Cleveland Center
Sun 09:39:36 PM 43.1650 -77.4864 110° East 214 246 9,700 2,200 Climbing Cleveland Center
Sun 09:40:36 PM 43.1417 -77.3992 110° East 224 258 12,000 2,250 Climbing Cleveland Center
Sun 09:41:36 PM 43.1267 -77.3117 103° East 230 265 14,200 2,100 Climbing Cleveland Center
Sun 09:42:36 PM 43.1075 -77.2247 107° East 230 265 16,200 2,000 Climbing Cleveland Center
Sun 09:43:36 PM 43.0883 -77.1375 107° East 235 270 18,200 1,800 Climbing Cleveland Center
Sun 09:44:36 PM 43.0711 -77.0475 105° East 240 276 19,800 1,714 Climbing Cleveland Center
Sun 09:46:17 PM 43.0367 -76.8892 107° East 240 276 22,800 1,752 Climbing Boston Center
Sun 09:47:17 PM 43.0128 -76.8053 111° Southeast 245 282 24,500 1,600 Climbing Boston Center
Sun 09:48:17 PM 42.9650 -76.7506 140° Southeast 224 258 26,000 1,150 Climbing Boston Center
Sun 09:49:17 PM 42.9128 -76.6931 141° Southeast 232 267 26,800 500 Climbing Boston Center
Sun 09:50:17 PM 42.8506 -76.6294 143° Southeast 257 296 27,000 100 Climbing Boston Center
Sun 09:51:17 PM 42.7756 -76.5675 149° Southeast 296 341 27,000  Level Boston Center
Sun 09:52:17 PM 42.6925 -76.5028 150° Southeast 323 372 27,000  Level Boston Center
Sun 09:53:17 PM 42.6136 -76.4328 147° Southeast 337 388 27,000  Level Boston Center
Sun 09:54:17 PM 42.5783 -76.3092 111° Southeast 331 381 27,000  Level Boston Center
Sun 09:55:17 PM 42.5603 -76.1669 100° East 351 404 27,000  Level Boston Center
Sun 09:56:17 PM 42.5544 -76.0256 93° East 356 410 27,000  Level Boston Center
Sun 09:57:29 PM 42.5567 -75.8847 89° East 367 422 27,000  Level Boston Center
Sun 09:58:29 PM 42.5617 -75.7158 88° East 373 429 27,000  Level Boston Center
Sun 09:59:29 PM 42.5594 -75.5747 91° East 373 429 27,000  Level Boston Center
Sun 10:00:29 PM 42.5569 -75.4281 91° East 378 435 27,000  Level Boston Center
Sun 10:01:29 PM 42.5586 -75.2814 89° East 383 441 27,000  Level Boston Center
Sun 10:02:29 PM 42.5603 -75.1350 89° East 383 441 27,000  Level Boston Center
Sun 10:03:29 PM 42.5617 -74.9856 89° East 383 441 27,000  Level Boston Center
Sun 10:04:29 PM 42.5628 -74.8361 89° East 383 441 27,000  Level Boston Center
Sun 10:05:41 PM 42.5489 -74.6919 97° East 383 441 27,000  Level Boston Center
Sun 10:06:41 PM 42.5314 -74.5167 98° East 389 448 27,000  Level Boston Center
Sun 10:07:42 PM 42.5192 -74.3839 97° East 389 448 27,000  Level Boston Center
Sun 10:08:41 PM 42.5111 -74.2400 94° East 389 448 27,000  Level Boston Center
Sun 10:09:41 PM 42.5175 -74.0964 86° East 384 442 27,000  Level Boston Center
Sun 10:10:41 PM 42.5194 -73.9528 89° East 384 442 27,000  Level Boston Center
Sun 10:11:41 PM 42.5214 -73.8092 89° East 379 436 27,000  Level Boston Center
Sun 10:12:41 PM 42.5208 -73.6628 90° East 379 436 27,000  Level Boston Center
Sun 10:13:41 PM 42.5244 -73.5161 88° East 384 442 27,000  Level Boston Center
Sun 10:14:41 PM 42.5278 -73.3697 88° East 384 442 27,000 -50 Level Boston Center
Sun 10:15:41 PM 42.5333 -73.1953 87° East 395 455 26,900 -600 Descending Boston Center
Sun 10:16:41 PM 42.5364 -73.0458 88° East 400 460 25,800 -1,050 Descending Boston Center
Sun 10:17:41 PM 42.5372 -72.8797 90° East 407 468 24,800 -950 Descending Boston Center
Sun 10:18:41 PM 42.5439 -72.7361 86° East 412 474 23,900 -1,400 Descending Boston Center
Sun 10:19:41 PM 42.5503 -72.5811 87° East 402 463 22,000 -2,000 Descending Boston Center
Sun 10:20:41 PM 42.5464 -72.4261 92° East 402 463 19,900 -2,100 Descending Boston Center
Sun 10:21:41 PM 42.5400 -72.2850 93° East 389 448 17,800 -2,100 Descending Boston Center
Sun 10:22:41 PM 42.5314 -72.1442 95° East 378 435 15,700 -2,400 Descending Boston Center
Sun 10:23:41 PM 42.5225 -72.0036 95° East 373 429 13,000 -2,200 Descending Boston Center
Sun 10:24:41 PM 42.5158 -71.8739 94° East 364 419 11,300 -1,650 Descending Boston Center
Sun 10:25:41 PM 42.5150 -71.7556 91° East 317 365 9,700 -1,150 Descending Boston Center
Sun 10:26:41 PM 42.5164 -71.6486 89° East 294 338 9,000 -700 Descending Boston Center
Sun 10:27:41 PM 42.5261 -71.5497 82° East 270 311 8,300 -1,210 Descending Boston Center
Sun 10:28:45 PM 42.5333 -71.4333 85° East 304 350 6,500 -1,615 Descending KA90
Sun 10:29:51 PM 42.5333 -71.3000 90° East 289 333 4,800 -1,250 Descending KA90
Sun 10:30:45 PM 42.5500 -71.2167 75° East 279 321 4,000 -550 Descending KA90
Sun 10:31:51 PM 42.5500 -71.1167 90° East 235 270 3,700 -476 Descending KA90
Sun 10:32:51 PM 42.5500 -71.0167 90° East 227 261 3,000 -350 Descending KA90
Sun 10:33:51 PM 42.5667 -70.9500 71° East 206 237 3,000  Level KA90
Sun 10:34:51 PM 42.5333 -70.9167 144° Southeast 176 203 3,000 -450 Level KA90
Sun 10:35:51 PM 42.4833 -70.9500 206° Southwest 161 185 2,100 -737 Descending KA90
Sun 10:36:45 PM 42.4500 -70.9667 200° South 156 180 1,600 -684 Descending KA90
Sun 10:37:45 PM 42.4167 -70.9833 200° South 150 173 800 -800 Descending KA90
Sun 10:39:00 PM 42.3630 -71.0064 270° West  Level Estimated
Sun 10:46:00 PM 42.3630 -71.0064 270° West  Level Estimated
Sun 10:47:00 PM 42.3630 -71.0064 270° West  Level Estimated

Login

Don't have an account? Register now (free) for customized features, flight alerts, and more!